SLLP/LPB METAR and TAF weather

Enter ICAO airport designator
Station Type Date Time Source
SLLP METAR 2021/09/28 05:00 UTC NOAA

SLLP 280500Z 08006KT 4000E VCFG FEW002 03/03 Q1039


Station Type Date Time Source
SLLP Decoded METAR 2021/09/28 05:00 UTC NOAA

La Paz / Alto, Bolivia (SLLP) 16-31S 068-11W 4038M
Sep 28, 2021 - 01:00 AM EDT / 2021.09.28 0500 UTC
Wind: from the E (080 degrees) at 7 MPH (6 KT):0
Visibility: 2 mile(s):0
Sky conditions: mostly clear
Weather: fog in the vicinity
Temperature: 37 F (3 C)
Dew Point: 37 F (3 C)
Relative Humidity: 100%
Pressure (altimeter): 30.68 in. Hg (1039 hPa)
ob: SLLP 280500Z 08006KT 4000E VCFG FEW002 03/03 Q1039
cycle: 5

Station Type Date Time Source
SLLP TAF 2021/09/28 06:48 UTC NOAA

TAF SLLP 280400Z 2806/2906 07004KT 3000E VCFG FEW003 TX19/2819Z TNM01/2810Z
BECMG 2813/2815 13008KT 9999 NSW FEW015
TEMPO 2818/2822 FEW023CB

Example: see airport list